createdAt,value
2023-04-15T00:01:41.191Z,61.88
2023-04-15T00:05:41.826Z,61.72
2023-04-15T00:09:45.119Z,61.88
2023-04-15T00:13:45.838Z,61.69
2023-04-15T00:17:46.149Z,61.59
2023-04-15T00:21:46.309Z,61.51
2023-04-15T00:25:49.361Z,62.07
2023-04-15T00:29:49.519Z,62.03
2023-04-15T00:33:49.753Z,62.08
2023-04-15T00:37:49.969Z,61.76
2023-04-15T00:41:53.189Z,62.05
2023-04-15T00:45:57.582Z,61.63
2023-04-15T00:49:58.263Z,60.90
2023-04-15T00:53:58.506Z,61.16
2023-04-15T00:58:02.890Z,61.33
2023-04-15T01:02:03.588Z,60.91
2023-04-15T01:06:04.376Z,59.95
2023-04-15T01:10:07.076Z,60.65
2023-04-15T01:14:12.141Z,60.00
2023-04-15T01:18:12.805Z,59.75
2023-04-15T01:22:13.753Z,58.91
2023-04-15T01:26:17.010Z,58.57
2023-04-15T01:30:19.397Z,59.06
2023-04-15T01:34:20.350Z,58.88
2023-04-15T01:38:20.744Z,59.26
2023-04-15T01:42:24.883Z,59.15
2023-04-15T01:46:26.001Z,58.89
2023-04-15T01:50:27.370Z,58.96
2023-04-15T01:54:29.063Z,58.26
2023-04-15T01:58:31.962Z,58.33
2023-04-15T02:02:32.482Z,58.46
2023-04-15T02:06:32.985Z,57.98
2023-04-15T02:10:33.372Z,58.27
2023-04-15T02:14:36.193Z,58.74
2023-04-15T02:18:36.685Z,58.46
2023-04-15T02:22:37.072Z,58.05
2023-04-15T02:26:37.289Z,57.85
2023-04-15T02:30:41.067Z,58.06
2023-04-15T02:34:42.880Z,58.07
2023-04-15T02:38:43.786Z,58.68
2023-04-15T02:42:45.782Z,57.57
2023-04-15T02:46:53.136Z,58.33
2023-04-15T02:50:54.817Z,57.47
2023-04-15T02:54:57.854Z,57.75
2023-04-15T02:58:58.731Z,59.04
2023-04-15T03:03:07.603Z,58.99
2023-04-15T03:07:08.000Z,58.43
2023-04-15T03:11:08.809Z,58.81
2023-04-15T03:15:12.876Z,58.31
2023-04-15T03:19:20.745Z,58.81
2023-04-15T03:23:21.355Z,58.46
2023-04-15T03:27:23.513Z,58.54
2023-04-15T03:31:24.170Z,59.57
2023-04-15T03:35:27.192Z,60.03
2023-04-15T03:39:27.436Z,61.41
2023-04-15T03:43:27.832Z,61.82
2023-04-15T03:47:28.293Z,61.41
2023-04-15T03:51:31.572Z,62.10
2023-04-15T03:55:31.847Z,62.52
2023-04-15T03:59:31.981Z,62.72
2023-04-15T04:03:32.390Z,62.32
2023-04-15T04:07:35.434Z,62.45
2023-04-15T04:11:35.960Z,61.92
2023-04-15T04:15:36.869Z,62.49
2023-04-15T04:19:37.356Z,62.77
2023-04-15T04:23:40.773Z,62.31
2023-04-15T04:27:41.768Z,62.62
2023-04-15T04:31:42.170Z,62.40
2023-04-15T04:35:42.323Z,62.92
2023-04-15T04:39:45.179Z,62.66
2023-04-15T04:43:45.356Z,62.82
2023-04-15T04:47:45.554Z,63.27
2023-04-15T04:51:47.375Z,63.15
2023-04-15T04:55:50.441Z,62.96
2023-04-15T04:59:51.313Z,62.81
2023-04-15T05:03:52.255Z,62.96
2023-04-15T05:07:52.692Z,62.50
2023-04-15T05:11:56.864Z,62.67
2023-04-15T05:15:57.162Z,62.81
2023-04-15T05:19:57.429Z,62.79
2023-04-15T05:23:57.597Z,62.62
2023-04-15T05:28:00.730Z,63.78
2023-04-15T05:32:00.920Z,63.70
2023-04-15T05:36:01.468Z,64.74
2023-04-15T05:40:01.702Z,64.45
2023-04-15T05:44:04.621Z,63.86
2023-04-15T05:48:04.785Z,63.65
2023-04-15T05:52:05.260Z,63.57
2023-04-15T05:56:05.506Z,64.24
2023-04-15T06:00:10.824Z,63.09
2023-04-15T06:04:11.722Z,62.91
2023-04-15T06:08:12.675Z,61.75
2023-04-15T06:12:13.376Z,62.11
2023-04-15T06:16:16.198Z,61.93
2023-04-15T06:20:16.625Z,61.90
2023-04-15T06:24:17.131Z,61.82
2023-04-15T06:28:17.315Z,61.67
2023-04-15T06:32:20.319Z,61.18
2023-04-15T06:36:20.847Z,61.66
2023-04-15T06:40:21.378Z,61.24
2023-04-15T06:44:21.786Z,60.73
2023-04-15T06:48:24.566Z,59.38
2023-04-15T06:52:24.777Z,60.09
2023-04-15T06:56:24.916Z,60.69
2023-04-15T07:00:25.677Z,60.89
2023-04-15T07:04:28.615Z,61.76
2023-04-15T07:08:29.012Z,62.87
2023-04-15T07:12:29.900Z,61.13
2023-04-15T07:16:30.102Z,60.52
2023-04-15T07:20:33.172Z,60.44
2023-04-15T07:24:33.405Z,60.31
2023-04-15T07:28:33.613Z,60.32
2023-04-15T07:32:33.832Z,59.88
2023-04-15T07:36:37.033Z,60.63
2023-04-15T07:40:37.222Z,60.42
2023-04-15T07:44:37.431Z,60.63
2023-04-15T07:48:37.845Z,60.67
2023-04-15T07:52:42.233Z,61.36
2023-04-15T07:56:42.410Z,60.56
2023-04-15T08:00:43.597Z,60.19
2023-04-15T08:04:44.467Z,59.83
2023-04-15T08:08:47.826Z,59.70
2023-04-15T08:12:49.310Z,59.96
2023-04-15T08:16:49.460Z,58.82
2023-04-15T08:20:49.808Z,58.57
2023-04-15T08:24:52.653Z,58.43
2023-04-15T08:28:53.100Z,58.12
2023-04-15T08:32:54.330Z,59.28
2023-04-15T08:36:54.672Z,58.68
2023-04-15T08:40:59.197Z,57.92
2023-04-15T08:45:02.214Z,57.80
2023-04-15T08:49:02.648Z,58.23
2023-04-15T08:53:03.464Z,58.66
2023-04-15T08:57:07.215Z,58.72
2023-04-15T09:01:08.063Z,58.87
2023-04-15T09:05:10.636Z,59.28
2023-04-15T09:09:10.907Z,58.57
2023-04-15T09:13:13.755Z,58.82
2023-04-15T09:17:14.833Z,57.70
2023-04-15T09:21:18.450Z,58.32
2023-04-15T09:25:34.955Z,58.34
2023-04-15T09:29:40.642Z,58.21
2023-04-15T09:34:00.791Z,57.34
2023-04-15T09:38:12.321Z,56.81
2023-04-15T09:42:14.193Z,56.11
2023-04-15T09:46:19.141Z,56.82
2023-04-15T09:50:21.618Z,57.03
2023-04-15T09:54:24.647Z,57.19
2023-04-15T09:58:28.670Z,56.50
2023-04-15T10:02:34.416Z,56.10
2023-04-15T10:06:38.728Z,56.06
2023-04-15T10:10:39.378Z,56.05
2023-04-15T10:14:43.248Z,55.50
2023-04-15T10:18:48.620Z,54.09
2023-04-15T10:22:49.860Z,53.55
2023-04-15T10:26:50.783Z,53.53
2023-04-15T10:30:57.038Z,52.80
2023-04-15T10:35:05.161Z,52.88
2023-04-15T10:39:06.820Z,53.57
2023-04-15T10:43:10.450Z,53.27
2023-04-15T10:47:15.633Z,53.02
2023-04-15T10:51:19.162Z,52.44
2023-04-15T10:55:24.823Z,52.53
2023-04-15T10:59:25.499Z,52.61
2023-04-15T11:03:41.927Z,54.36
2023-04-15T11:07:53.278Z,55.44
2023-04-15T11:12:10.761Z,55.17
2023-04-15T11:16:10.971Z,55.55
2023-04-15T11:20:12.656Z,54.33
2023-04-15T11:24:26.606Z,54.06
2023-04-15T11:28:30.563Z,53.56
2023-04-15T11:32:30.723Z,53.62
2023-04-15T11:36:33.249Z,55.61
2023-04-15T11:40:36.372Z,56.33
2023-04-15T11:44:36.465Z,56.62
2023-04-15T11:48:39.582Z,55.95
2023-04-15T11:52:39.848Z,54.32
2023-04-15T11:56:42.572Z,52.59
2023-04-15T12:00:43.922Z,52.91
2023-04-15T12:04:44.219Z,52.94
2023-04-15T12:09:07.335Z,52.94
2023-04-15T12:13:13.343Z,51.83
2023-04-15T12:17:14.405Z,52.34
2023-04-15T12:21:15.674Z,53.08
2023-04-15T12:25:16.215Z,53.10
2023-04-15T12:29:20.321Z,51.94
2023-04-15T12:33:20.618Z,52.32
2023-04-15T12:37:21.729Z,53.31
2023-04-15T12:41:24.567Z,52.97
2023-04-15T12:45:29.428Z,52.28
2023-04-15T12:49:30.710Z,52.91
2023-04-15T12:53:31.548Z,53.17
2023-04-15T12:57:31.806Z,52.34
2023-04-15T13:01:34.819Z,52.71
2023-04-15T13:05:37.151Z,52.17
2023-04-15T13:09:37.980Z,52.63
2023-04-15T13:13:38.334Z,51.52
2023-04-15T13:17:42.007Z,51.65
2023-04-15T13:21:42.568Z,51.54
2023-04-15T13:25:42.752Z,51.87
2023-04-15T13:29:43.158Z,51.01
2023-04-15T13:33:46.272Z,50.51
2023-04-15T13:37:46.713Z,50.36
2023-04-15T13:41:48.707Z,50.88
2023-04-15T13:45:51.091Z,49.99
2023-04-15T13:49:56.350Z,50.09
2023-04-15T13:53:58.286Z,50.40
2023-04-15T13:57:59.453Z,49.91
2023-04-15T14:01:59.862Z,50.80
2023-04-15T14:06:02.856Z,50.95
2023-04-15T14:10:04.489Z,50.74
2023-04-15T14:14:05.402Z,50.38
2023-04-15T14:18:06.034Z,50.48
2023-04-15T14:22:09.156Z,52.14
2023-04-15T14:26:09.399Z,52.15
2023-04-15T14:30:13.062Z,52.28
2023-04-15T14:34:13.795Z,52.41
2023-04-15T14:38:16.673Z,52.57
2023-04-15T14:42:17.073Z,52.87
2023-04-15T14:46:17.404Z,52.84
2023-04-15T14:50:17.833Z,52.20
2023-04-15T14:54:22.361Z,52.42
2023-04-15T14:58:23.014Z,52.41
2023-04-15T15:02:37.226Z,53.22
2023-04-15T15:06:39.892Z,53.82
2023-04-15T15:10:49.396Z,54.18
2023-04-15T15:14:50.184Z,54.48
2023-04-15T15:18:51.286Z,55.15
2023-04-15T15:22:51.570Z,55.88
2023-04-15T15:26:55.291Z,56.77
2023-04-15T15:30:55.728Z,56.80
2023-04-15T15:34:56.042Z,56.73
2023-04-15T15:38:56.387Z,55.80
2023-04-15T15:42:59.116Z,55.88
2023-04-15T15:46:59.706Z,55.68
2023-04-15T15:51:00.003Z,56.33
2023-04-15T15:55:00.667Z,57.29
2023-04-15T15:59:04.817Z,57.48
2023-04-15T16:03:07.113Z,56.92
2023-04-15T16:07:09.317Z,57.00
2023-04-15T16:11:10.077Z,57.50
2023-04-15T16:15:15.223Z,56.94
2023-04-15T16:19:15.494Z,57.38
2023-04-15T16:23:20.021Z,57.63
2023-04-15T16:27:21.596Z,57.36
2023-04-15T16:31:24.848Z,56.29
2023-04-15T16:35:25.087Z,57.07
2023-04-15T16:39:25.424Z,57.83
2023-04-15T16:43:28.007Z,57.19
2023-04-15T16:47:31.169Z,58.29
2023-04-15T16:51:33.370Z,58.78
2023-04-15T16:55:34.009Z,58.07
2023-04-15T16:59:34.237Z,57.08
2023-04-15T17:03:37.158Z,56.63
2023-04-15T17:07:37.540Z,56.32
2023-04-15T17:11:38.968Z,57.46
2023-04-15T17:15:39.172Z,57.51
2023-04-15T17:19:41.889Z,57.00
2023-04-15T17:23:42.083Z,58.12
2023-04-15T17:27:42.244Z,57.79
2023-04-15T17:31:42.748Z,57.32
2023-04-15T17:35:45.679Z,57.84
2023-04-15T17:39:46.591Z,57.84
2023-04-15T17:43:46.756Z,57.04
2023-04-15T17:47:46.969Z,57.76
2023-04-15T17:51:49.685Z,58.83
2023-04-15T17:55:50.530Z,59.14
2023-04-15T17:59:51.433Z,58.78
2023-04-15T18:03:54.043Z,58.71
2023-04-15T18:07:57.302Z,59.19
2023-04-15T18:11:57.482Z,58.99
2023-04-15T18:15:58.993Z,59.40
2023-04-15T18:19:59.852Z,59.14
2023-04-15T18:24:04.481Z,58.63
2023-04-15T18:28:06.103Z,58.51
2023-04-15T18:32:06.667Z,58.33
2023-04-15T18:36:07.354Z,58.97
2023-04-15T18:40:12.529Z,58.93
2023-04-15T18:44:13.212Z,59.36
2023-04-15T18:48:14.522Z,59.64
2023-04-15T18:52:17.596Z,59.01
2023-04-15T18:56:20.666Z,59.74
2023-04-15T19:00:21.133Z,61.09
2023-04-15T19:04:21.524Z,60.15
2023-04-15T19:08:21.730Z,60.32
2023-04-15T19:12:25.942Z,59.96
2023-04-15T19:16:26.091Z,59.96
2023-04-15T19:20:26.541Z,60.86
2023-04-15T19:24:26.795Z,61.35
2023-04-15T19:28:30.332Z,60.27
2023-04-15T19:32:30.656Z,60.71
2023-04-15T19:36:31.986Z,61.31
2023-04-15T19:40:35.258Z,60.70
2023-04-15T19:44:42.905Z,60.47
2023-04-15T19:48:43.139Z,59.95
2023-04-15T19:52:43.349Z,62.42
2023-04-15T19:56:43.488Z,63.02
2023-04-15T20:00:46.371Z,62.54
2023-04-15T20:04:46.628Z,62.76
2023-04-15T20:08:46.834Z,62.59
2023-04-15T20:12:51.075Z,63.55
2023-04-15T20:16:55.256Z,63.54
2023-04-15T20:20:55.730Z,63.76
2023-04-15T20:24:55.989Z,63.40
2023-04-15T20:28:57.168Z,63.37
2023-04-15T20:33:00.764Z,64.55
2023-04-15T20:37:01.919Z,64.91
2023-04-15T20:41:02.246Z,65.15
2023-04-15T20:45:02.728Z,65.16
2023-04-15T20:49:06.751Z,65.37
2023-04-15T20:53:07.683Z,64.23
2023-04-15T20:57:07.780Z,64.17
2023-04-15T21:01:08.058Z,64.58
2023-04-15T21:05:12.101Z,65.28
2023-04-15T21:09:12.321Z,65.28
2023-04-15T21:13:15.346Z,65.37
2023-04-15T21:17:15.740Z,66.48
2023-04-15T21:21:19.831Z,65.84
2023-04-15T21:25:20.400Z,66.72
2023-04-15T21:29:20.653Z,65.90
2023-04-15T21:33:22.441Z,65.46
2023-04-15T21:37:25.313Z,65.31
2023-04-15T21:41:25.474Z,65.08
2023-04-15T21:45:25.881Z,64.46
2023-04-15T21:49:26.032Z,64.29
2023-04-15T21:53:28.810Z,64.78
2023-04-15T21:57:29.888Z,66.00
2023-04-15T22:01:30.599Z,66.18
2023-04-15T22:05:30.925Z,65.62
2023-04-15T22:09:33.639Z,64.61
2023-04-15T22:13:33.790Z,64.69
2023-04-15T22:17:34.364Z,64.93
2023-04-15T22:21:34.631Z,64.66
2023-04-15T22:25:37.462Z,64.55
2023-04-15T22:29:38.398Z,64.29
2023-04-15T22:33:39.047Z,64.69
2023-04-15T22:37:39.331Z,64.74
2023-04-15T22:41:42.250Z,64.63
2023-04-15T22:45:42.670Z,64.20
2023-04-15T22:49:42.893Z,64.83
2023-04-15T22:53:43.305Z,65.33
2023-04-15T22:57:46.123Z,65.18
2023-04-15T23:01:46.320Z,65.11
2023-04-15T23:05:46.467Z,65.88
2023-04-15T23:09:46.675Z,65.88
2023-04-15T23:13:50.771Z,65.84
2023-04-15T23:17:51.076Z,65.99
2023-04-15T23:21:51.755Z,65.74
2023-04-15T23:25:52.119Z,65.05
2023-04-15T23:29:54.939Z,65.44
2023-04-15T23:33:55.122Z,65.07
2023-04-15T23:37:55.351Z,64.63
2023-04-15T23:41:56.477Z,64.16
2023-04-15T23:45:59.631Z,64.26
2023-04-15T23:49:59.780Z,64.69
2023-04-15T23:53:59.936Z,64.60
2023-04-15T23:58:00.202Z,64.74
